Terminal Aerodrome Forecast
Issued by NWS Flagstaff, AZ

Home | Current Version | Previous Version | Text Only | Print | Product List | Glossary On
Versions: 1 2 3 4 5 6 7 8 9 10 11 12 13 14 15 16 17 18 19 20 21
000
FTUS45 KFGZ 210010 AAA
TAFINW
TAF AMD
KINW 210010Z 2100/2124 01012G22KT P6SM SCT100
      TEMPO 2101/2103 VRB15G25KT 5SM TSRA BKN050CB OVC080
     FM210500 VRB06KT P6SM FEW100
     FM212100 27010KT P6SM BKN070 BKN100=

USA.gov is the U.S. government's official web portal to all federal, state and local government web resources and services.